Terminal Aerodrome Forecast
Issued by NWS

Home | Current Version | Previous Version | Text Only | Print | Product List | Glossary On
Versions: 1 2 3 4 5 6 7 8 9 10 11 12 13 14 15 16 17 18 19 20 21 22 23 24 25 26 27 28 29 30 31 32 33
431
FTUS41 KOKX 190529
TAFTEB
TAF
KTEB 190529Z 1906/2006 21010KT 6SM -SHRA BR OVC050 WS020/22050KT
     FM190800 21015G25KT 3SM SHRA BR BKN015 OVC040 WS020/22050KT
     FM191100 24019G32KT 6SM -SHRA BR BKN020 OVC040
     FM191500 29020G37KT P6SM BKN040
     FM191900 28018G33KT P6SM SCT040
     FM192300 29013G23KT P6SM SCT040=

USA.gov is the U.S. government's official web portal to all federal, state and local government web resources and services.